PWSweather.com
Personal Weather Stations
Station Observations

ChardChardGB

Lat: 50.877408, Lon: -2.94964741

Elevation: 341

Station Type: WS3083

http://www.merriott-astro.co.uk/weather/index.htm

High Low Average
Temperature 52.9°F11.6°C 38.5°F3.6°C 44.5°F6.9°C
Dew Point 51.2°F10.7°C 25.9°F-3.4°C 33.6°F0.9°C
Winds 21.3 mph 34.3 kmh Calm Calm 8.0 mph WSW12.9 kmh WSW
Wind Gusts 22.8 mph36.7 kmh -- 11.0 mph17.7 kmh
Humidity 94% 40% 67%
Pressure 29.90 in1012.5 mb 28.88 in978.0 mb -
Precipitation 0.09 in2.3 mm - -
Hour Temp Dew Point Humidity Winds Wind Gusts Pressure Precip Precip Rate Daily Precip Total
12:05 AM 52.9°F11.6°C 51.2°F10.7°C 94% 11.4 mph NNE18.3 kmh NNE 11.4 mph18.3 kmh 28.98 in981.4 mb 0.00 in0.0 mm 0.00 in0.0 mm 0.00 in0.0 mm
12:35 AM 52.3°F11.3°C 50.4°F10.2°C 93% 9.2 mph S14.8 kmh S 9.2 mph14.8 kmh 28.98 in981.4 mb 0.00 in0.0 mm 0.00 in0.0 mm 0.00 in0.0 mm
01:05 AM 51.8°F11.0°C 47.1°F8.4°C 84% 9.2 mph SE14.8 kmh SE 9.2 mph14.8 kmh 28.97 in981.0 mb 0.00 in0.0 mm 0.00 in0.0 mm 0.00 in0.0 mm
01:35 AM 51.4°F10.8°C 43.1°F6.2°C 73% 14.5 mph SE23.3 kmh SE 14.5 mph23.3 kmh 28.97 in981.0 mb 0.01 in0.3 mm 0.02 in0.5 mm 0.01 in0.3 mm
02:05 AM 50.9°F10.5°C 42.2°F5.7°C 72% 21.3 mph SW34.3 kmh SW 21.3 mph34.3 kmh 28.97 in981.0 mb 0.00 in0.0 mm 0.00 in0.0 mm 0.01 in0.3 mm
02:35 AM 50.2°F10.1°C 41.5°F5.3°C 72% 10.7 mph NW17.2 kmh NW 10.7 mph17.2 kmh 28.97 in981.0 mb 0.00 in0.0 mm 0.00 in0.0 mm 0.01 in0.3 mm
03:05 AM 50.0°F10.0°C 39.5°F4.2°C 67% 13.0 mph S20.9 kmh S 13.0 mph20.9 kmh 28.98 in981.4 mb 0.00 in0.0 mm 0.00 in0.0 mm 0.01 in0.3 mm
03:35 AM 48.9°F9.4°C 38.4°F3.6°C 67% 9.2 mph SW14.8 kmh SW 9.2 mph14.8 kmh 28.98 in981.4 mb 0.00 in0.0 mm 0.00 in0.0 mm 0.01 in0.3 mm
04:05 AM 48.7°F9.3°C 39.4°F4.1°C 70% 5.4 mph E8.7 kmh E 5.4 mph8.7 kmh 28.99 in981.7 mb 0.00 in0.0 mm 0.00 in0.0 mm 0.01 in0.3 mm
04:35 AM 48.6°F9.2°C 38.5°F3.6°C 68% 13.6 mph NE21.9 kmh NE 13.6 mph21.9 kmh 28.98 in981.4 mb 0.00 in0.0 mm 0.00 in0.0 mm 0.01 in0.3 mm
05:05 AM 48.2°F9.0°C 37.4°F3.0°C 66% 11.4 mph S18.3 kmh S 11.4 mph18.3 kmh 28.98 in981.4 mb 0.00 in0.0 mm 0.00 in0.0 mm 0.01 in0.3 mm
05:35 AM 47.8°F8.8°C 38.5°F3.6°C 70% 8.3 mph SW13.4 kmh SW 8.3 mph13.4 kmh 28.96 in980.7 mb 0.00 in0.0 mm 0.00 in0.0 mm 0.01 in0.3 mm
06:05 AM 47.7°F8.7°C 38.4°F3.6°C 70% 7.6 mph W12.2 kmh W 7.6 mph12.2 kmh 28.96 in980.7 mb 0.00 in0.0 mm 0.00 in0.0 mm 0.01 in0.3 mm
06:35 AM 47.3°F8.5°C 38.0°F3.3°C 70% 9.2 mph S14.8 kmh S 9.2 mph14.8 kmh 28.93 in979.7 mb 0.00 in0.0 mm 0.00 in0.0 mm 0.01 in0.3 mm
07:05 AM 46.8°F8.2°C 37.5°F3.1°C 70% 5.4 mph SW8.7 kmh SW 5.4 mph8.7 kmh 28.92 in979.3 mb 0.00 in0.0 mm 0.00 in0.0 mm 0.01 in0.3 mm
07:35 AM 46.4°F8.0°C 37.5°F3.1°C 71% 5.4 mph N8.7 kmh N 5.4 mph8.7 kmh 28.92 in979.3 mb 0.00 in0.0 mm 0.00 in0.0 mm 0.01 in0.3 mm
08:05 AM 45.9°F7.7°C 37.0°F2.8°C 71% 3.1 mph NW5.0 kmh NW 3.1 mph5.0 kmh 28.91 in979.0 mb 0.00 in0.0 mm 0.00 in0.0 mm 0.01 in0.3 mm
08:35 AM 44.1°F6.7°C 38.0°F3.3°C 79% 4.5 mph N7.2 kmh N 4.5 mph7.2 kmh 28.90 in978.7 mb 0.01 in0.3 mm 0.02 in0.5 mm 0.02 in0.5 mm
09:05 AM 42.8°F6.0°C 37.1°F2.8°C 80% 2.2 mph NW3.5 kmh NW 2.2 mph3.5 kmh 28.89 in978.3 mb 0.01 in0.3 mm 0.00 in0.0 mm 0.04 in1.0 mm
09:35 AM 42.3°F5.7°C 36.8°F2.7°C 81% Calm Calm -- 28.88 in978.0 mb 0.01 in0.3 mm 0.00 in0.0 mm 0.05 in1.3 mm
10:05 AM 41.5°F5.3°C 36.5°F2.5°C 82% 3.8 mph NW6.1 kmh NW 3.8 mph6.1 kmh 28.88 in978.0 mb 0.00 in0.0 mm 0.00 in0.0 mm 0.05 in1.3 mm
10:35 AM 41.5°F5.3°C 36.8°F2.7°C 83% Calm Calm -- 28.90 in978.7 mb 0.00 in0.0 mm 0.00 in0.0 mm 0.05 in1.3 mm
11:05 AM 41.7°F5.4°C 36.6°F2.6°C 82% Calm Calm -- 28.90 in978.7 mb 0.00 in0.0 mm 0.00 in0.0 mm 0.05 in1.3 mm
11:35 AM 41.7°F5.4°C 36.6°F2.6°C 82% Calm Calm -- 28.91 in979.0 mb 0.00 in0.0 mm 0.00 in0.0 mm 0.05 in1.3 mm
12:05 PM 41.7°F5.4°C 36.6°F2.6°C 82% 3.8 mph N6.1 kmh N 3.8 mph6.1 kmh 28.92 in979.3 mb 0.00 in0.0 mm 0.00 in0.0 mm 0.05 in1.3 mm
12:35 PM 41.7°F5.4°C 36.3°F2.4°C 81% Calm Calm -- 28.94 in980.0 mb 0.00 in0.0 mm 0.00 in0.0 mm 0.05 in1.3 mm
01:05 PM 41.2°F5.1°C 35.5°F1.9°C 80% 6.9 mph NW11.1 kmh NW 6.9 mph11.1 kmh 28.96 in980.7 mb 0.00 in0.0 mm 0.00 in0.0 mm 0.05 in1.3 mm
01:35 PM 41.0°F5.0°C 35.3°F1.8°C 80% Calm Calm -- 28.97 in981.0 mb 0.00 in0.0 mm 0.00 in0.0 mm 0.05 in1.3 mm
02:05 PM 39.9°F4.4°C 34.2°F1.2°C 80% Calm Calm -- 28.99 in981.7 mb 0.00 in0.0 mm 0.00 in0.0 mm 0.05 in1.3 mm
02:20 PM 48.9°F9.4°C 26.3°F-3.2°C 41% 15.4 mph NW24.8 kmh NW 22.8 mph36.7 kmh 29.78 in1008.5 mb 0.00 in0.0 mm 0.00 in0.0 mm 0.05 in1.3 mm
02:30 PM 48.6°F9.2°C 25.9°F-3.4°C 41% 14.0 mph NW22.5 kmh NW 19.7 mph31.7 kmh 29.77 in1008.1 mb 0.00 in0.0 mm 0.00 in0.0 mm 0.05 in1.3 mm
02:40 PM 50.2°F10.1°C 27.4°F-2.6°C 41% 13.5 mph WNW21.7 kmh WNW 16.8 mph27.0 kmh 29.78 in1008.5 mb 0.00 in0.0 mm 0.00 in0.0 mm 0.05 in1.3 mm
02:50 PM 51.4°F10.8°C 27.9°F-2.3°C 40% 13.6 mph WNW21.9 kmh WNW 19.0 mph30.6 kmh 29.78 in1008.5 mb 0.00 in0.0 mm 0.00 in0.0 mm 0.05 in1.3 mm
03:00 PM 50.4°F10.2°C 28.2°F-2.1°C 42% 11.9 mph WNW19.2 kmh WNW 15.9 mph25.6 kmh 29.78 in1008.5 mb 0.00 in0.0 mm 0.00 in0.0 mm 0.05 in1.3 mm
03:10 PM 48.6°F9.2°C 28.2°F-2.1°C 45% 10.7 mph WNW17.2 kmh WNW 16.8 mph27.0 kmh 29.78 in1008.5 mb 0.00 in0.0 mm 0.00 in0.0 mm 0.05 in1.3 mm
03:20 PM 50.9°F10.5°C 29.2°F-1.6°C 43% 11.1 mph WNW17.9 kmh WNW 16.8 mph27.0 kmh 29.78 in1008.5 mb 0.00 in0.0 mm 0.00 in0.0 mm 0.05 in1.3 mm
03:30 PM 51.6°F10.9°C 28.7°F-1.8°C 41% 11.0 mph NW17.7 kmh NW 15.2 mph24.5 kmh 29.78 in1008.5 mb 0.00 in0.0 mm 0.00 in0.0 mm 0.05 in1.3 mm
03:40 PM 50.7°F10.4°C 27.9°F-2.3°C 41% 14.2 mph WNW22.9 kmh WNW 22.8 mph36.7 kmh 29.78 in1008.5 mb 0.00 in0.0 mm 0.00 in0.0 mm 0.05 in1.3 mm
03:50 PM 50.4°F10.2°C 27.6°F-2.4°C 41% 12.0 mph W19.3 kmh W 13.6 mph21.9 kmh 29.78 in1008.5 mb 0.00 in0.0 mm 0.00 in0.0 mm 0.05 in1.3 mm
04:00 PM 49.5°F9.7°C 26.8°F-2.9°C 41% 12.7 mph WSW20.4 kmh WSW 18.3 mph29.5 kmh 29.78 in1008.5 mb 0.00 in0.0 mm 0.00 in0.0 mm 0.05 in1.3 mm
04:10 PM 49.5°F9.7°C 27.3°F-2.6°C 42% 9.0 mph NW14.5 kmh NW 16.8 mph27.0 kmh 29.78 in1008.5 mb 0.00 in0.0 mm 0.00 in0.0 mm 0.05 in1.3 mm
04:20 PM 48.9°F9.4°C 27.4°F-2.6°C 43% 12.2 mph NW19.6 kmh NW 17.4 mph28.0 kmh 29.78 in1008.5 mb 0.00 in0.0 mm 0.00 in0.0 mm 0.05 in1.3 mm
04:30 PM 49.8°F9.9°C 30.4°F-0.9°C 47% 11.0 mph S17.7 kmh S 17.4 mph28.0 kmh 29.78 in1008.5 mb 0.00 in0.0 mm 0.00 in0.0 mm 0.05 in1.3 mm
04:40 PM 49.3°F9.6°C 30.4°F-0.9°C 48% 14.0 mph NW22.5 kmh NW 19.0 mph30.6 kmh 29.78 in1008.5 mb 0.00 in0.0 mm 0.00 in0.0 mm 0.05 in1.3 mm
04:50 PM 46.9°F8.3°C 29.8°F-1.2°C 51% 13.9 mph WNW22.4 kmh WNW 18.3 mph29.5 kmh 29.78 in1008.5 mb 0.00 in0.0 mm 0.00 in0.0 mm 0.05 in1.3 mm
05:00 PM 46.4°F8.0°C 30.7°F-0.7°C 54% 9.7 mph WSW15.6 kmh WSW 13.0 mph20.9 kmh 29.78 in1008.5 mb 0.00 in0.0 mm 0.00 in0.0 mm 0.05 in1.3 mm
05:10 PM 45.9°F7.7°C 31.5°F-0.3°C 57% 10.5 mph WSW16.9 kmh WSW 13.0 mph20.9 kmh 29.78 in1008.5 mb 0.00 in0.0 mm 0.00 in0.0 mm 0.05 in1.3 mm
05:20 PM 45.5°F7.5°C 32.4°F0.2°C 60% 10.4 mph W16.7 kmh W 13.6 mph21.9 kmh 29.78 in1008.5 mb 0.00 in0.0 mm 0.00 in0.0 mm 0.05 in1.3 mm
05:30 PM 45.3°F7.4°C 33.9°F1.1°C 64% 8.0 mph W12.9 kmh W 14.5 mph23.3 kmh 29.79 in1008.8 mb 0.00 in0.0 mm 0.00 in0.0 mm 0.05 in1.3 mm
05:40 PM 45.1°F7.3°C 33.7°F0.9°C 64% 10.4 mph SW16.7 kmh SW 18.3 mph29.5 kmh 29.79 in1008.8 mb 0.00 in0.0 mm 0.00 in0.0 mm 0.05 in1.3 mm
05:50 PM 44.8°F7.1°C 33.7°F0.9°C 65% 7.1 mph S11.4 kmh S 13.0 mph20.9 kmh 29.79 in1008.8 mb 0.00 in0.0 mm 0.00 in0.0 mm 0.05 in1.3 mm
06:00 PM 44.4°F6.9°C 33.4°F0.8°C 65% 6.4 mph WNW10.3 kmh WNW 9.2 mph14.8 kmh 29.79 in1008.8 mb 0.00 in0.0 mm 0.00 in0.0 mm 0.05 in1.3 mm
06:10 PM 44.4°F6.9°C 33.4°F0.8°C 65% 6.4 mph SW10.3 kmh SW 11.4 mph18.3 kmh 29.79 in1008.8 mb 0.00 in0.0 mm 0.00 in0.0 mm 0.05 in1.3 mm
06:20 PM 44.4°F6.9°C 33.8°F1.0°C 66% 3.8 mph WNW6.1 kmh WNW 6.0 mph9.7 kmh 29.80 in1009.1 mb 0.00 in0.0 mm 0.00 in0.0 mm 0.05 in1.3 mm
06:30 PM 42.1°F5.6°C 33.0°F0.6°C 70% 9.6 mph NW15.4 kmh NW 13.6 mph21.9 kmh 29.82 in1009.8 mb 0.02 in0.5 mm 0.12 in3.0 mm 0.07 in1.8 mm
06:40 PM 40.5°F4.7°C 32.5°F0.3°C 73% 6.8 mph NW10.9 kmh NW 9.2 mph14.8 kmh 29.81 in1009.5 mb 0.02 in0.5 mm 0.00 in0.0 mm 0.07 in1.8 mm
06:50 PM 39.9°F4.4°C 33.0°F0.6°C 76% 4.8 mph W7.7 kmh W 6.9 mph11.1 kmh 29.81 in1009.5 mb 0.02 in0.5 mm 0.00 in0.0 mm 0.07 in1.8 mm
07:00 PM 39.7°F4.3°C 33.5°F0.8°C 78% 5.2 mph NW8.4 kmh NW 9.2 mph14.8 kmh 29.82 in1009.8 mb 0.02 in0.5 mm 0.00 in0.0 mm 0.07 in1.8 mm
07:10 PM 39.9°F4.4°C 33.6°F0.9°C 78% 6.5 mph W10.5 kmh W 9.2 mph14.8 kmh 29.83 in1010.2 mb 0.02 in0.5 mm 0.00 in0.0 mm 0.07 in1.8 mm
07:20 PM 40.3°F4.6°C 34.0°F1.1°C 78% 6.7 mph WNW10.8 kmh WNW 9.2 mph14.8 kmh 29.81 in1009.5 mb 0.02 in0.5 mm 0.00 in0.0 mm 0.07 in1.8 mm
07:30 PM 40.5°F4.7°C 34.2°F1.2°C 78% 6.5 mph WSW10.5 kmh WSW 10.7 mph17.2 kmh 29.82 in1009.8 mb 0.00 in0.0 mm 0.00 in0.0 mm 0.07 in1.8 mm
07:40 PM 41.0°F5.0°C 34.7°F1.5°C 78% 6.7 mph WSW10.8 kmh WSW 9.8 mph15.8 kmh 29.81 in1009.5 mb 0.00 in0.0 mm 0.00 in0.0 mm 0.07 in1.8 mm
07:50 PM 39.7°F4.3°C 32.8°F0.4°C 76% 8.9 mph NNW14.3 kmh NNW 16.8 mph27.0 kmh 29.85 in1010.8 mb 0.01 in0.3 mm 0.06 in1.5 mm 0.08 in2.0 mm
08:00 PM 38.5°F3.6°C 31.9°F-0.1°C 77% 6.2 mph NW10.0 kmh NW 10.7 mph17.2 kmh 29.84 in1010.5 mb 0.01 in0.3 mm 0.00 in0.0 mm 0.08 in2.0 mm
08:10 PM 38.7°F3.7°C 32.7°F0.4°C 79% 4.0 mph NW6.4 kmh NW 11.4 mph18.3 kmh 29.85 in1010.8 mb 0.01 in0.3 mm 0.00 in0.0 mm 0.08 in2.0 mm
08:20 PM 40.1°F4.5°C 34.4°F1.3°C 80% 10.0 mph NW16.1 kmh NW 14.5 mph23.3 kmh 29.85 in1010.8 mb 0.01 in0.3 mm 0.00 in0.0 mm 0.08 in2.0 mm
08:30 PM 40.3°F4.6°C 33.7°F0.9°C 77% 12.3 mph NNW19.8 kmh NNW 21.3 mph34.3 kmh 29.85 in1010.8 mb 0.02 in0.5 mm 0.06 in1.5 mm 0.09 in2.3 mm
08:40 PM 40.1°F4.5°C 32.8°F0.4°C 75% 10.0 mph NNW16.1 kmh NNW 14.5 mph23.3 kmh 29.85 in1010.8 mb 0.02 in0.5 mm 0.00 in0.0 mm 0.09 in2.3 mm
08:50 PM 39.9°F4.4°C 32.7°F0.4°C 75% 7.6 mph WNW12.2 kmh WNW 9.2 mph14.8 kmh 29.85 in1010.8 mb 0.01 in0.3 mm 0.00 in0.0 mm 0.09 in2.3 mm
09:00 PM 39.9°F4.4°C 33.0°F0.6°C 76% 8.9 mph NW14.3 kmh NW 16.8 mph27.0 kmh 29.85 in1010.8 mb 0.01 in0.3 mm 0.00 in0.0 mm 0.09 in2.3 mm
09:10 PM 40.1°F4.5°C 32.8°F0.4°C 75% 8.1 mph NW13.0 kmh NW 10.7 mph17.2 kmh 29.85 in1010.8 mb 0.01 in0.3 mm 0.00 in0.0 mm 0.09 in2.3 mm
09:20 PM 40.3°F4.6°C 32.7°F0.4°C 74% 8.4 mph NW13.5 kmh NW 13.0 mph20.9 kmh 29.86 in1011.2 mb 0.01 in0.3 mm 0.00 in0.0 mm 0.09 in2.3 mm
09:30 PM 40.6°F4.8°C 32.0°F0.0°C 71% 9.8 mph NW15.8 kmh NW 13.0 mph20.9 kmh 29.86 in1011.2 mb 0.00 in0.0 mm 0.00 in0.0 mm 0.09 in2.3 mm
09:40 PM 40.6°F4.8°C 32.0°F0.0°C 71% 7.7 mph NW12.4 kmh NW 11.4 mph18.3 kmh 29.86 in1011.2 mb 0.00 in0.0 mm 0.00 in0.0 mm 0.09 in2.3 mm
09:50 PM 41.0°F5.0°C 31.3°F-0.4°C 68% 9.2 mph NW14.8 kmh NW 13.0 mph20.9 kmh 29.86 in1011.2 mb 0.00 in0.0 mm 0.00 in0.0 mm 0.09 in2.3 mm
10:00 PM 41.4°F5.2°C 30.9°F-0.6°C 66% 8.5 mph NW13.7 kmh NW 13.6 mph21.9 kmh 29.87 in1011.5 mb 0.00 in0.0 mm 0.00 in0.0 mm 0.09 in2.3 mm
10:10 PM 41.7°F5.4°C 30.1°F-1.1°C 63% 11.9 mph NW19.2 kmh NW 22.1 mph35.6 kmh 29.87 in1011.5 mb 0.00 in0.0 mm 0.00 in0.0 mm 0.09 in2.3 mm
10:20 PM 41.4°F5.2°C 29.3°F-1.5°C 62% 13.3 mph NW21.4 kmh NW 15.9 mph25.6 kmh 29.87 in1011.5 mb 0.00 in0.0 mm 0.00 in0.0 mm 0.09 in2.3 mm
10:30 PM 40.8°F4.9°C 29.2°F-1.6°C 63% 8.1 mph NW13.0 kmh NW 9.8 mph15.8 kmh 29.87 in1011.5 mb 0.00 in0.0 mm 0.00 in0.0 mm 0.09 in2.3 mm
10:40 PM 40.5°F4.7°C 29.6°F-1.3°C 65% 7.1 mph NW11.4 kmh NW 9.8 mph15.8 kmh 29.88 in1011.9 mb 0.00 in0.0 mm 0.00 in0.0 mm 0.09 in2.3 mm
10:50 PM 40.5°F4.7°C 30.0°F-1.1°C 66% 7.5 mph NW12.1 kmh NW 10.7 mph17.2 kmh 29.88 in1011.9 mb 0.00 in0.0 mm 0.00 in0.0 mm 0.09 in2.3 mm
11:00 PM 40.3°F4.6°C 30.2°F-1.0°C 67% 6.9 mph NW11.1 kmh NW 9.8 mph15.8 kmh 29.88 in1011.9 mb 0.00 in0.0 mm 0.00 in0.0 mm 0.09 in2.3 mm
11:10 PM 40.8°F4.9°C 29.6°F-1.3°C 64% 11.6 mph WNW18.7 kmh WNW 20.6 mph33.2 kmh 29.88 in1011.9 mb 0.00 in0.0 mm 0.00 in0.0 mm 0.09 in2.3 mm
11:20 PM 40.6°F4.8°C 29.0°F-1.7°C 63% 7.8 mph NW12.6 kmh NW 10.7 mph17.2 kmh 29.88 in1011.9 mb 0.00 in0.0 mm 0.00 in0.0 mm 0.09 in2.3 mm
11:30 PM 40.8°F4.9°C 28.8°F-1.8°C 62% 8.6 mph NW13.8 kmh NW 10.7 mph17.2 kmh 29.88 in1011.9 mb 0.00 in0.0 mm 0.00 in0.0 mm 0.09 in2.3 mm
11:40 PM 40.8°F4.9°C 29.2°F-1.6°C 63% 8.6 mph NW13.8 kmh NW 10.7 mph17.2 kmh 29.89 in1012.2 mb 0.00 in0.0 mm 0.00 in0.0 mm 0.09 in2.3 mm
11:50 PM 40.8°F4.9°C 29.2°F-1.6°C 63% 8.3 mph W13.4 kmh W 13.0 mph20.9 kmh 29.90 in1012.5 mb 0.00 in0.0 mm 0.00 in0.0 mm 0.09 in2.3 mm